createdAt,value
2022-11-15T00:00:30.892Z,15.7
2022-11-15T00:02:33.977Z,15.8
2022-11-15T00:04:37.065Z,15.6
2022-11-15T00:07:55.043Z,15.7
2022-11-15T00:09:46.420Z,13.3
2022-11-15T00:11:49.528Z,12.5
2022-11-15T00:13:55.832Z,17.5
2022-11-15T00:15:58.913Z,13.3
2022-11-15T00:18:02.001Z,14.7
2022-11-15T00:20:05.106Z,15.6
2022-11-15T00:22:08.196Z,15.5
2022-11-15T00:24:11.283Z,15.3
2022-11-15T00:26:14.395Z,14.3
2022-11-15T00:28:20.678Z,17
2022-11-15T00:30:23.773Z,15.2
2022-11-15T00:32:26.869Z,16.1
2022-11-15T00:34:29.965Z,15.3
2022-11-15T00:36:33.054Z,13.8
2022-11-15T00:38:36.142Z,17.3
2022-11-15T00:40:39.246Z,15.5
2022-11-15T00:42:45.568Z,19.3
2022-11-15T00:44:48.667Z,17
2022-11-15T00:48:54.872Z,15.9
2022-11-15T00:55:04.160Z,16.8
2022-11-15T00:59:13.989Z,16.9
2022-11-15T01:01:17.168Z,18.1
2022-11-15T01:04:23.331Z,17.6
2022-11-15T01:10:35.844Z,20.6
2022-11-15T01:12:38.934Z,19.1
2022-11-15T01:16:45.129Z,19.6
2022-11-15T01:18:48.218Z,20.3
2022-11-15T01:20:51.290Z,16
2022-11-15T01:22:54.381Z,19
2022-11-15T01:27:03.772Z,20.5
2022-11-15T01:29:06.865Z,18.7
2022-11-15T01:31:09.976Z,20.1
2022-11-15T01:33:13.088Z,18.4
2022-11-15T01:35:16.186Z,16
2022-11-15T01:37:19.285Z,19.9
2022-11-15T01:39:25.588Z,17.9
2022-11-15T01:41:28.707Z,19.3
2022-11-15T01:45:34.898Z,19
2022-11-15T01:47:37.993Z,21.4
2022-11-15T01:51:44.218Z,21.8
2022-11-15T01:53:50.501Z,20.5
2022-11-15T01:55:53.598Z,17.9
2022-11-15T01:57:56.733Z,18.6
2022-11-15T01:58:59.861Z,19.9
2022-11-15T02:01:03.059Z,19.2
2022-11-15T02:03:06.081Z,19.5
2022-11-15T02:05:09.224Z,22.2
2022-11-15T02:07:15.629Z,19.5
2022-11-15T02:09:18.611Z,22.9
2022-11-15T02:11:21.734Z,19
2022-11-15T02:13:24.823Z,18.8
2022-11-15T02:15:27.930Z,20.6
2022-11-15T02:17:31.027Z,19
2022-11-15T02:19:34.133Z,17.8
2022-11-15T02:21:40.440Z,22
2022-11-15T02:23:43.536Z,21.2
2022-11-15T02:25:46.660Z,20.3
2022-11-15T02:29:52.880Z,20.1
2022-11-15T02:31:55.961Z,18.4
2022-11-15T02:33:59.068Z,16.4
2022-11-15T02:36:05.371Z,18.2
2022-11-15T02:38:08.494Z,23
2022-11-15T02:40:11.604Z,23.1
2022-11-15T02:42:14.735Z,21.3
2022-11-15T02:44:17.803Z,19.3
2022-11-15T02:46:20.924Z,20.1
2022-11-15T02:48:24.037Z,19.3
2022-11-15T02:50:30.345Z,23.4
2022-11-15T02:52:33.464Z,22.3
2022-11-15T02:54:36.586Z,22.6
2022-11-15T02:57:00.409Z,24.7
2022-11-15T02:59:03.533Z,22.4
2022-11-15T03:03:12.973Z,21.5
2022-11-15T03:05:16.086Z,21.8
2022-11-15T03:07:19.277Z,24.4
2022-11-15T03:11:25.402Z,22.2
2022-11-15T03:13:28.777Z,22.5
2022-11-15T03:15:31.632Z,23.9
2022-11-15T03:17:37.973Z,25.4
2022-11-15T03:19:41.053Z,21.1
2022-11-15T03:21:44.193Z,19.4
2022-11-15T03:23:47.291Z,20.2
2022-11-15T03:25:50.416Z,23.1
2022-11-15T03:29:56.639Z,18.3
2022-11-15T03:32:02.975Z,21.8
2022-11-15T03:34:06.096Z,22.3
2022-11-15T03:36:09.201Z,18.9
2022-11-15T03:38:12.356Z,20.5
2022-11-15T03:40:15.439Z,19.4
2022-11-15T03:42:18.569Z,20.4
2022-11-15T03:44:21.668Z,20.4
2022-11-15T03:46:27.976Z,18.8
2022-11-15T03:48:31.123Z,19.9
2022-11-15T03:50:34.219Z,19.4
2022-11-15T03:51:37.383Z,19.9
2022-11-15T03:55:43.623Z,19.4
2022-11-15T03:57:46.766Z,21.6
2022-11-15T03:59:53.088Z,23.8
2022-11-15T04:01:56.193Z,16.7
2022-11-15T04:03:59.322Z,22.4
2022-11-15T04:06:02.455Z,18.1
2022-11-15T04:08:05.536Z,22.2
2022-11-15T04:10:08.649Z,17.7
2022-11-15T04:12:11.790Z,23.7
2022-11-15T04:14:18.083Z,19
2022-11-15T04:16:21.205Z,20.8
2022-11-15T04:18:24.336Z,23.6
2022-11-15T04:20:27.457Z,20.5
2022-11-15T04:22:30.577Z,21.7
2022-11-15T04:24:33.694Z,22.6
2022-11-15T04:26:36.824Z,20.6
2022-11-15T04:28:43.154Z,25.7
2022-11-15T04:30:46.275Z,24.1
2022-11-15T04:32:50.991Z,22.4
2022-11-15T04:34:54.048Z,23.7
2022-11-15T04:36:57.171Z,21.4
2022-11-15T04:39:00.294Z,22.8
2022-11-15T04:41:03.434Z,22.7
2022-11-15T04:43:09.753Z,21.8
2022-11-15T04:45:12.873Z,21.7
2022-11-15T04:47:15.997Z,22.2
2022-11-15T04:52:25.417Z,20
2022-11-15T04:56:34.878Z,22.1
2022-11-15T05:02:44.227Z,20.1
2022-11-15T05:04:47.364Z,20.5
2022-11-15T05:06:50.561Z,21.2
2022-11-15T05:08:53.607Z,19
2022-11-15T05:10:59.946Z,21
2022-11-15T05:13:03.045Z,22.5
2022-11-15T05:15:06.182Z,19.8
2022-11-15T05:17:09.295Z,19.7
2022-11-15T05:19:12.426Z,20.2
2022-11-15T05:21:15.593Z,20.3
2022-11-15T05:23:18.702Z,19.7
2022-11-15T05:25:25.021Z,19.4
2022-11-15T05:27:28.136Z,19.5
2022-11-15T05:29:31.238Z,18.9
2022-11-15T05:31:34.373Z,20.6
2022-11-15T05:33:37.487Z,19.8
2022-11-15T05:37:43.756Z,18.9
2022-11-15T05:39:50.069Z,21.1
2022-11-15T05:41:53.184Z,20.2
2022-11-15T05:43:56.308Z,19.4
2022-11-15T05:44:59.482Z,20.7
2022-11-15T05:47:02.605Z,18.7
2022-11-15T05:49:05.724Z,18.9
2022-11-15T05:51:08.872Z,19.9
2022-11-15T05:53:15.193Z,20.2
2022-11-15T05:55:18.319Z,18.5
2022-11-15T05:57:21.442Z,17.1
2022-11-15T05:59:24.566Z,20.3
2022-11-15T06:01:27.673Z,18.2
2022-11-15T06:05:34.706Z,16.5
2022-11-15T06:07:41.064Z,19.9
2022-11-15T06:09:44.190Z,17
2022-11-15T06:11:47.329Z,18.9
2022-11-15T06:13:50.473Z,19.2
2022-11-15T06:15:53.572Z,17
2022-11-15T06:17:56.752Z,16.7
2022-11-15T06:19:59.843Z,17.8
2022-11-15T06:22:06.176Z,20.3
2022-11-15T06:24:09.297Z,19.8
2022-11-15T06:28:15.564Z,18
2022-11-15T06:30:18.692Z,16.7
2022-11-15T06:32:21.800Z,18.2
2022-11-15T06:34:24.932Z,20.6
2022-11-15T06:36:31.265Z,17.7
2022-11-15T06:38:34.360Z,21
2022-11-15T06:40:37.495Z,17.1
2022-11-15T06:45:04.464Z,18.8
2022-11-15T06:47:07.589Z,18.6
2022-11-15T06:49:13.930Z,19.6
2022-11-15T06:51:17.051Z,18.4
2022-11-15T06:53:20.176Z,16.2
2022-11-15T06:55:23.335Z,17
2022-11-15T06:57:26.448Z,17.4
2022-11-15T07:01:32.810Z,19.9
2022-11-15T07:03:39.031Z,17.4
2022-11-15T07:13:54.690Z,16.9
2022-11-15T07:18:04.137Z,16.7
2022-11-15T07:20:07.258Z,16.4
2022-11-15T07:22:10.372Z,18.1
2022-11-15T07:24:13.510Z,18.4
2022-11-15T07:28:19.763Z,17.4
2022-11-15T07:30:22.881Z,19
2022-11-15T07:32:29.250Z,22
2022-11-15T07:34:32.358Z,20.2
2022-11-15T07:36:35.492Z,18.8
2022-11-15T07:41:44.915Z,18.9
2022-11-15T07:43:48.056Z,20.8
2022-11-15T07:45:58.818Z,20.8
2022-11-15T07:52:03.791Z,19.8
2022-11-15T07:56:10.030Z,21
2022-11-15T08:00:19.519Z,21.8
2022-11-15T08:02:25.334Z,21.3
2022-11-15T08:04:25.746Z,21.5
2022-11-15T08:06:28.862Z,18.5
2022-11-15T08:10:40.249Z,19.3
2022-11-15T08:12:38.286Z,21.7
2022-11-15T08:14:44.615Z,18.5
2022-11-15T08:16:47.717Z,15.5
2022-11-15T08:18:50.836Z,17.5
2022-11-15T08:20:53.959Z,17.7
2022-11-15T08:22:57.096Z,16.7
2022-11-15T08:25:00.205Z,14.4
2022-11-15T08:27:03.352Z,16.6
2022-11-15T08:29:09.670Z,18.1
2022-11-15T08:31:12.792Z,16.8
2022-11-15T08:33:15.909Z,15.7
2022-11-15T08:34:19.075Z,15.9
2022-11-15T08:38:25.319Z,14.3
2022-11-15T08:40:28.432Z,17.6
2022-11-15T08:44:37.862Z,18.4
2022-11-15T08:46:40.991Z,16.6
2022-11-15T08:50:47.247Z,16.7
2022-11-15T08:52:50.373Z,17.1
2022-11-15T08:54:53.484Z,16.6
2022-11-15T08:56:59.833Z,18
2022-11-15T08:59:02.949Z,15.6
2022-11-15T09:01:06.161Z,15.9
2022-11-15T09:03:09.195Z,14.1
2022-11-15T09:05:12.331Z,14.3
2022-11-15T09:09:18.563Z,12
2022-11-15T09:13:28.054Z,11.6
2022-11-15T09:23:43.659Z,10.7
2022-11-15T09:27:53.147Z,9.9
2022-11-15T09:29:56.274Z,11
2022-11-15T09:30:59.451Z,11.8
2022-11-15T09:33:02.598Z,10.7
2022-11-15T09:35:05.707Z,9.6
2022-11-15T09:37:08.845Z,11.3
2022-11-15T09:39:15.213Z,10.4
2022-11-15T09:43:21.456Z,8
2022-11-15T09:45:24.572Z,9.4
2022-11-15T09:47:27.705Z,9.2
2022-11-15T09:49:30.806Z,8.8
2022-11-15T09:51:33.959Z,6.4
2022-11-15T09:54:18.619Z,5.7
2022-11-15T09:55:43.442Z,8.2
2022-11-15T09:57:46.574Z,5.8
2022-11-15T10:01:52.895Z,7.4
2022-11-15T10:03:55.963Z,8.1
2022-11-15T10:05:59.115Z,6.2
2022-11-15T10:08:05.361Z,5.9
2022-11-15T10:10:08.488Z,6
2022-11-15T10:12:11.603Z,3.9
2022-11-15T10:14:14.647Z,3.8
2022-11-15T10:18:20.744Z,3.3
2022-11-15T10:20:23.831Z,3
2022-11-15T10:22:29.891Z,2.9
2022-11-15T10:24:32.919Z,2.6
2022-11-15T10:26:35.977Z,3
2022-11-15T10:29:01.041Z,2.9
2022-11-15T10:31:04.101Z,2.7
2022-11-15T10:33:07.137Z,2.7
2022-11-15T10:35:13.270Z,2.6
2022-11-15T10:37:16.299Z,1.9
2022-11-15T10:39:19.391Z,2
2022-11-15T10:41:22.416Z,1.8
2022-11-15T10:43:25.435Z,1.8
2022-11-15T10:45:28.474Z,2.1
2022-11-15T10:47:36.042Z,2.5
2022-11-15T10:49:37.672Z,1.3
2022-11-15T10:53:43.731Z,1.9
2022-11-15T10:55:46.767Z,1.3
2022-11-15T10:57:49.803Z,0.5
2022-11-15T10:59:52.842Z,1.1
2022-11-15T11:01:55.869Z,1.4
2022-11-15T11:04:02.042Z,1.6
2022-11-15T11:06:05.073Z,1.7
2022-11-15T11:08:08.100Z,1.9
2022-11-15T11:10:29.284Z,0.1
2022-11-15T11:12:14.171Z,1.8
2022-11-15T11:14:17.194Z,0.9
2022-11-15T11:16:20.220Z,0.9
2022-11-15T11:18:26.371Z,0.9
2022-11-15T11:22:32.435Z,0.9
2022-11-15T11:23:35.522Z,1.3
2022-11-15T11:25:38.554Z,0.5
2022-11-15T11:27:41.586Z,0.9
2022-11-15T11:29:44.625Z,0.2
2022-11-15T11:31:50.773Z,0.5
2022-11-15T11:33:53.815Z,0.8
2022-11-15T11:35:56.841Z,1
2022-11-15T11:37:59.901Z,0.3
2022-11-15T11:40:07.496Z,0.1
2022-11-15T11:42:05.950Z,0.4
2022-11-15T11:44:08.991Z,0.1
2022-11-15T11:46:15.131Z,0.2
2022-11-15T11:48:18.179Z,0.1
2022-11-15T11:50:21.161Z,0.2
2022-11-15T11:52:24.197Z,0.2
2022-11-15T11:54:27.229Z,0.4
2022-11-15T11:56:30.265Z,0.6
2022-11-15T12:00:39.443Z,0.1
2022-11-15T12:02:42.792Z,0.1
2022-11-15T12:04:45.504Z,0.3
2022-11-15T12:06:48.573Z,0.2
2022-11-15T12:08:51.576Z,0.1
2022-11-15T12:10:54.563Z,0.1
2022-11-15T12:12:57.577Z,0.2
2022-11-15T12:15:03.713Z,0
2022-11-15T12:17:06.761Z,0.1
2022-11-15T12:19:09.769Z,1
2022-11-15T12:20:12.951Z,0.2
2022-11-15T12:22:15.859Z,0.2
2022-11-15T12:26:21.922Z,0
2022-11-15T12:28:28.053Z,0
2022-11-15T12:32:34.119Z,0.1
2022-11-15T12:34:37.125Z,0.1
2022-11-15T12:36:40.174Z,0
2022-11-15T12:40:46.233Z,0.3
2022-11-15T12:42:52.376Z,0
2022-11-15T12:44:55.406Z,0.2
2022-11-15T12:46:58.457Z,0
2022-11-15T13:01:22.859Z,0.1
2022-11-15T13:07:31.941Z,0.1
2022-11-15T13:09:34.966Z,0.2
2022-11-15T13:13:44.123Z,0
2022-11-15T13:15:47.139Z,0
2022-11-15T13:16:50.208Z,0.3
2022-11-15T13:18:53.265Z,0.1
2022-11-15T13:21:01.971Z,0
2022-11-15T13:22:59.324Z,0.1
2022-11-15T13:25:05.482Z,0
2022-11-15T13:27:08.516Z,0.4
2022-11-15T13:29:11.539Z,0.1
2022-11-15T13:31:14.601Z,0
2022-11-15T13:33:17.620Z,0
2022-11-15T13:35:20.664Z,0
2022-11-15T13:37:23.707Z,0
2022-11-15T13:39:29.840Z,0.1
2022-11-15T13:41:32.877Z,0.1
2022-11-15T13:43:35.938Z,0
2022-11-15T13:45:39.044Z,0
2022-11-15T13:47:41.993Z,0.1
2022-11-15T13:49:45.045Z,0.1
2022-11-15T13:51:48.076Z,0
2022-11-15T13:53:54.231Z,0
2022-11-15T13:55:57.284Z,2.2
2022-11-15T13:58:00.313Z,0
2022-11-15T14:00:03.360Z,0
2022-11-15T14:02:06.398Z,0
2022-11-15T14:04:09.531Z,0
2022-11-15T14:06:12.665Z,0
2022-11-15T14:08:18.911Z,0
2022-11-15T14:10:22.044Z,0
2022-11-15T14:12:25.201Z,0
2022-11-15T14:14:54.916Z,0.5
2022-11-15T14:16:58.102Z,0
2022-11-15T14:19:00.968Z,0.1
2022-11-15T14:21:07.360Z,0.3
2022-11-15T14:25:13.523Z,0
2022-11-15T14:27:16.540Z,0.1
2022-11-15T14:29:19.672Z,0.1
2022-11-15T14:31:22.802Z,0.1
2022-11-15T14:33:25.944Z,0.1
2022-11-15T14:35:32.305Z,0
2022-11-15T14:37:35.455Z,0.1
2022-11-15T14:39:38.596Z,0.5
2022-11-15T14:41:41.713Z,0.1
2022-11-15T14:43:44.882Z,0
2022-11-15T14:45:48.014Z,0.2
2022-11-15T14:47:51.136Z,0.1
2022-11-15T14:49:57.562Z,0.1
2022-11-15T14:52:00.642Z,0.2
2022-11-15T14:54:03.760Z,0
2022-11-15T14:56:06.902Z,0.6
2022-11-15T14:58:10.040Z,0.3
2022-11-15T15:00:13.172Z,0.2
2022-11-15T15:02:16.297Z,0.3
2022-11-15T15:04:22.652Z,0.1
2022-11-15T15:06:25.795Z,0.2
2022-11-15T15:08:29.068Z,0.1
2022-11-15T15:09:32.117Z,0.2
2022-11-15T15:11:35.236Z,0.4
2022-11-15T15:15:41.529Z,0.1
2022-11-15T15:17:47.877Z,0
2022-11-15T15:19:51.028Z,0.8
2022-11-15T15:21:54.158Z,1.4
2022-11-15T15:23:57.303Z,0.5
2022-11-15T15:26:00.427Z,1.4
2022-11-15T15:28:03.584Z,0.8
2022-11-15T15:30:06.721Z,0.3
2022-11-15T15:32:13.075Z,0
2022-11-15T15:34:17.007Z,0
2022-11-15T15:36:19.375Z,0.1
2022-11-15T15:38:22.479Z,0.3
2022-11-15T15:40:25.630Z,0.3
2022-11-15T15:42:29.759Z,0.5
2022-11-15T15:44:31.872Z,0.2
2022-11-15T15:46:38.009Z,0.2
2022-11-15T15:48:41.053Z,0.4
2022-11-15T15:50:44.105Z,0.1
2022-11-15T15:52:47.118Z,0
2022-11-15T15:54:50.152Z,0.3
2022-11-15T15:56:56.167Z,0.1
2022-11-15T15:58:56.233Z,1.1
2022-11-15T16:01:02.412Z,0.6
2022-11-15T16:03:05.418Z,0.5
2022-11-15T16:05:08.420Z,0.1
2022-11-15T16:08:14.533Z,0.4
2022-11-15T16:10:17.560Z,0.5
2022-11-15T16:14:26.757Z,0.4
2022-11-15T16:16:29.796Z,0.1
2022-11-15T16:18:33.152Z,0.2
2022-11-15T16:20:35.852Z,2.9
2022-11-15T16:22:40.444Z,0.3
2022-11-15T16:24:43.435Z,0.7
2022-11-15T16:26:46.485Z,0.7
2022-11-15T16:28:52.606Z,0.3
2022-11-15T16:35:01.738Z,0.2
2022-11-15T16:37:04.747Z,0.2
2022-11-15T16:43:16.974Z,0.1
2022-11-15T16:47:23.034Z,1
2022-11-15T16:49:26.066Z,0.3
2022-11-15T16:53:32.128Z,0.6
2022-11-15T16:55:35.181Z,0.3
2022-11-15T16:57:41.330Z,0.6
2022-11-15T16:59:44.376Z,0.7
2022-11-15T17:01:47.393Z,0
2022-11-15T17:02:50.493Z,0.3
2022-11-15T17:04:53.523Z,0.5
2022-11-15T17:06:56.604Z,0.5
2022-11-15T17:08:59.582Z,0.2
2022-11-15T17:11:05.721Z,0.2
2022-11-15T17:13:08.758Z,0.2
2022-11-15T17:15:11.884Z,0.5
2022-11-15T17:17:15.037Z,0.1
2022-11-15T17:19:18.163Z,0.7
2022-11-15T17:21:21.320Z,0.4
2022-11-15T17:23:24.452Z,0.2
2022-11-15T17:25:30.807Z,0.2
2022-11-15T17:27:33.922Z,0.2
2022-11-15T17:29:37.056Z,0.3
2022-11-15T17:31:40.188Z,0.6
2022-11-15T17:33:43.327Z,0.1
2022-11-15T17:35:46.475Z,0.9
2022-11-15T17:37:49.586Z,0.3
2022-11-15T17:39:56.024Z,0.2
2022-11-15T17:44:02.224Z,0.4
2022-11-15T17:46:05.371Z,0.1
2022-11-15T17:48:08.521Z,0.3
2022-11-15T17:50:11.675Z,0.7
2022-11-15T17:52:14.763Z,0.1
2022-11-15T17:54:21.138Z,0.7
2022-11-15T17:56:24.270Z,0.5
2022-11-15T17:58:27.393Z,0.3
2022-11-15T18:00:57.227Z,0.3
2022-11-15T18:03:00.298Z,0.9
2022-11-15T18:05:03.450Z,0.4
2022-11-15T18:07:09.758Z,0.2
2022-11-15T18:09:12.831Z,0.6
2022-11-15T18:13:19.118Z,0.6
2022-11-15T18:15:22.249Z,0.6
2022-11-15T18:17:25.390Z,0.8
2022-11-15T18:19:28.520Z,2.8
2022-11-15T18:23:38.016Z,0.4
2022-11-15T18:25:41.171Z,0.3
2022-11-15T18:27:44.283Z,0.9
2022-11-15T18:29:47.426Z,0.7
2022-11-15T18:31:50.567Z,0.3
2022-11-15T18:33:53.701Z,0.6
2022-11-15T18:36:00.092Z,0.8
2022-11-15T18:38:03.199Z,0.7
2022-11-15T18:40:06.333Z,1.4
2022-11-15T18:42:09.477Z,0.9
2022-11-15T18:44:12.586Z,1.6
2022-11-15T18:46:15.706Z,0.3
2022-11-15T18:48:18.834Z,1.8
2022-11-15T18:50:25.202Z,1.5
2022-11-15T18:52:28.313Z,1.3
2022-11-15T18:54:31.850Z,0.5
2022-11-15T18:55:34.591Z,0.6
2022-11-15T18:57:37.723Z,1.1
2022-11-15T18:59:40.844Z,1.2
2022-11-15T19:01:43.980Z,0.8
2022-11-15T19:03:50.289Z,1.4
2022-11-15T19:05:53.428Z,0.3
2022-11-15T19:07:56.559Z,1.8
2022-11-15T19:09:59.675Z,1.5
2022-11-15T19:12:02.826Z,2
2022-11-15T19:14:05.971Z,0.5
2022-11-15T19:18:15.462Z,1.3
2022-11-15T19:20:18.565Z,2
2022-11-15T19:22:21.716Z,1.9
2022-11-15T19:24:24.854Z,1.1
2022-11-15T19:26:27.974Z,1.3
2022-11-15T19:28:31.101Z,1.2
2022-11-15T19:30:34.212Z,2
2022-11-15T19:32:40.558Z,3.1
2022-11-15T19:34:43.685Z,3.8
2022-11-15T19:38:49.978Z,1.6
2022-11-15T19:40:53.094Z,2.2
2022-11-15T19:42:56.237Z,2.9
2022-11-15T19:44:59.371Z,2
2022-11-15T19:47:05.732Z,2
2022-11-15T19:49:08.849Z,2
2022-11-15T19:51:11.977Z,2
2022-11-15T19:58:24.531Z,4.9
2022-11-15T20:02:34.040Z,3.2
2022-11-15T20:04:37.134Z,4.1
2022-11-15T20:10:46.545Z,3.1
2022-11-15T20:12:49.689Z,2.5
2022-11-15T20:14:56.045Z,4.3
2022-11-15T20:16:59.159Z,3.5
2022-11-15T20:19:02.307Z,4.2
2022-11-15T20:21:05.409Z,3.2
2022-11-15T20:23:08.533Z,3
2022-11-15T20:25:11.662Z,3.6
2022-11-15T20:27:14.800Z,3
2022-11-15T20:29:21.147Z,4.7
2022-11-15T20:31:24.254Z,4.1
2022-11-15T20:37:33.659Z,3.1
2022-11-15T20:43:46.317Z,4.2
2022-11-15T20:45:49.424Z,3.6
2022-11-15T20:47:52.559Z,3.8
2022-11-15T20:48:55.731Z,4.6
2022-11-15T20:50:58.860Z,3.7
2022-11-15T20:53:01.990Z,3.3
2022-11-15T20:55:05.124Z,3.4
2022-11-15T20:57:11.450Z,3.6
2022-11-15T20:59:14.599Z,5
2022-11-15T21:01:17.876Z,5.1
2022-11-15T21:03:20.844Z,3.3
2022-11-15T21:05:23.953Z,4
2022-11-15T21:07:27.135Z,4.6
2022-11-15T21:11:36.578Z,6.5
2022-11-15T21:13:39.697Z,4.4
2022-11-15T21:15:42.833Z,3.8
2022-11-15T21:17:45.977Z,4.2
2022-11-15T21:19:49.118Z,3.8
2022-11-15T21:21:52.256Z,5.5
2022-11-15T21:23:55.388Z,3.6
2022-11-15T21:26:01.722Z,4.6
2022-11-15T21:28:04.848Z,4.4
2022-11-15T21:30:07.981Z,5.2
2022-11-15T21:32:11.132Z,4.5
2022-11-15T21:34:14.248Z,5.4
2022-11-15T21:36:17.392Z,5.8
2022-11-15T21:38:20.519Z,4.9
2022-11-15T21:40:27.244Z,3.7
2022-11-15T21:42:30.389Z,7
2022-11-15T21:44:33.510Z,6.7
2022-11-15T21:51:03.903Z,6.7
2022-11-15T21:55:13.408Z,7.2
2022-11-15T21:57:16.562Z,6.5
2022-11-15T21:59:19.684Z,5.4
2022-11-15T22:01:22.957Z,9.6
2022-11-15T22:03:25.975Z,7.2
2022-11-15T22:05:29.196Z,7.1
2022-11-15T22:07:35.486Z,8.6
2022-11-15T22:09:38.575Z,9.1
2022-11-15T22:11:41.712Z,8
2022-11-15T22:13:44.829Z,5.9
2022-11-15T22:15:47.993Z,6.8
2022-11-15T22:17:52.671Z,7.9
2022-11-15T22:19:55.754Z,6.9
2022-11-15T22:22:02.175Z,7.6
2022-11-15T22:24:05.233Z,6.3
2022-11-15T22:26:08.356Z,8
2022-11-15T22:28:11.503Z,7.9
2022-11-15T22:30:14.635Z,9.4
2022-11-15T22:32:17.773Z,6.5
2022-11-15T22:34:20.900Z,7.3
2022-11-15T22:36:32.891Z,9.7
2022-11-15T22:38:30.434Z,9.7
2022-11-15T22:40:33.544Z,9.1
2022-11-15T22:41:36.707Z,9.4
2022-11-15T22:43:39.847Z,9
2022-11-15T22:45:43.000Z,8.8
2022-11-15T22:47:46.102Z,8.6
2022-11-15T22:49:52.486Z,9.1
2022-11-15T22:51:55.576Z,10.6
2022-11-15T22:56:01.858Z,12.1
2022-11-15T22:58:04.946Z,11.8
2022-11-15T23:00:08.134Z,12.3
2022-11-15T23:08:23.823Z,13.9
2022-11-15T23:10:26.952Z,12.5
2022-11-15T23:12:30.119Z,13.9
2022-11-15T23:14:33.217Z,12.1
2022-11-15T23:16:36.372Z,12.2
2022-11-15T23:18:42.694Z,11.2
2022-11-15T23:20:45.827Z,9.8
2022-11-15T23:22:48.971Z,11.1
2022-11-15T23:24:52.117Z,10.2
2022-11-15T23:26:55.205Z,11.9
2022-11-15T23:28:58.318Z,12.1
2022-11-15T23:31:01.437Z,12.5
2022-11-15T23:33:07.776Z,11.5
2022-11-15T23:35:10.916Z,12.1
2022-11-15T23:37:14.060Z,13
2022-11-15T23:38:17.211Z,14.6
2022-11-15T23:40:20.357Z,13
2022-11-15T23:42:23.452Z,11.4
2022-11-15T23:44:26.603Z,10.5
2022-11-15T23:46:32.924Z,13.3
2022-11-15T23:48:36.183Z,13.1
2022-11-15T23:50:39.185Z,14.2
2022-11-15T23:52:42.319Z,13.5
2022-11-15T23:54:45.441Z,11.8
2022-11-15T23:56:48.567Z,14
2022-11-15T23:58:51.697Z,13.9
